createdAt,value
2019-01-11T00:00:02.331Z,100871
2019-01-11T00:05:02.427Z,100880
2019-01-11T00:10:02.356Z,100865
2019-01-11T00:15:02.357Z,100868
2019-01-11T00:20:03.591Z,100866
2019-01-11T00:25:02.376Z,100867
2019-01-11T00:30:02.380Z,100858
2019-01-11T00:35:02.497Z,100855
2019-01-11T00:40:02.511Z,100854
2019-01-11T00:45:02.387Z,100837
2019-01-11T00:50:02.481Z,100846
2019-01-11T00:55:02.403Z,100825
2019-01-11T01:00:02.452Z,100830
2019-01-11T01:05:02.462Z,100822
2019-01-11T01:10:02.406Z,100822
2019-01-11T01:15:02.430Z,100830
2019-01-11T01:20:02.423Z,100821
2019-01-11T01:25:02.418Z,100820
2019-01-11T01:30:02.459Z,100815
2019-01-11T01:35:02.400Z,100819
2019-01-11T01:40:02.402Z,100816
2019-01-11T01:45:02.441Z,100809
2019-01-11T01:50:02.443Z,100806
2019-01-11T01:55:02.362Z,100817
2019-01-11T02:00:02.403Z,100813
2019-01-11T02:05:02.384Z,100817
2019-01-11T02:10:02.370Z,100804
2019-01-11T02:15:02.389Z,100809
2019-01-11T02:20:02.392Z,100801
2019-01-11T02:25:02.379Z,100799
2019-01-11T02:30:02.417Z,100802
2019-01-11T02:35:02.379Z,100801
2019-01-11T02:40:02.391Z,100796
2019-01-11T02:45:02.400Z,100802
2019-01-11T02:50:02.396Z,100799
2019-01-11T02:55:02.423Z,100776
2019-01-11T03:00:02.404Z,100774
2019-01-11T03:05:02.415Z,100771
2019-01-11T03:10:02.394Z,100773
2019-01-11T03:15:02.403Z,100770
2019-01-11T03:20:02.415Z,100762
2019-01-11T03:25:02.420Z,100752
2019-01-11T03:30:02.413Z,100752
2019-01-11T03:35:02.417Z,100745
2019-01-11T03:40:02.411Z,100733
2019-01-11T03:45:02.423Z,100734
2019-01-11T03:50:02.426Z,100721
2019-01-11T03:55:02.466Z,100719
2019-01-11T04:00:02.412Z,100727
2019-01-11T04:05:02.432Z,100718
2019-01-11T04:10:02.444Z,100708
2019-01-11T04:15:02.426Z,100712
2019-01-11T04:20:02.628Z,100700
2019-01-11T04:25:02.433Z,100686
2019-01-11T04:30:02.419Z,100686
2019-01-11T04:35:02.472Z,100681
2019-01-11T04:40:02.443Z,100680
2019-01-11T04:45:02.432Z,100677
2019-01-11T04:50:09.142Z,100674
2019-01-11T04:55:02.429Z,100663
2019-01-11T05:00:02.444Z,100663
2019-01-11T05:05:02.447Z,100663
2019-01-11T05:10:02.439Z,100663
2019-01-11T05:15:02.495Z,100663
2019-01-11T05:20:02.445Z,100663
2019-01-11T05:25:02.460Z,100663
2019-01-11T05:30:02.458Z,100642
2019-01-11T05:35:02.482Z,100626
2019-01-11T05:40:02.451Z,100616
2019-01-11T05:45:02.448Z,100608
2019-01-11T05:50:02.444Z,100600
2019-01-11T05:55:02.478Z,100595
2019-01-11T06:00:02.462Z,100594
2019-01-11T06:05:02.461Z,100582
2019-01-11T06:10:03.102Z,100579
2019-01-11T06:15:02.460Z,100573
2019-01-11T06:20:02.452Z,100562
2019-01-11T06:25:02.472Z,100561
2019-01-11T06:30:02.506Z,100562
2019-01-11T06:35:02.514Z,100557
2019-01-11T06:40:02.463Z,100551
2019-01-11T06:45:02.467Z,100551
2019-01-11T06:50:02.468Z,100551
2019-01-11T06:55:02.514Z,100557
2019-01-11T07:00:02.520Z,100554
2019-01-11T07:05:02.472Z,100537
2019-01-11T07:10:02.468Z,100541
2019-01-11T07:15:02.468Z,100533
2019-01-11T07:20:05.581Z,100537
2019-01-11T07:25:02.475Z,100542
2019-01-11T07:30:02.504Z,100549
2019-01-11T07:35:02.515Z,100541
2019-01-11T07:40:02.535Z,100529
2019-01-11T07:45:02.544Z,100519
2019-01-11T07:50:02.492Z,100513
2019-01-11T07:55:02.491Z,100529
2019-01-11T08:00:02.466Z,100511
2019-01-11T08:05:02.489Z,100506
2019-01-11T08:10:02.490Z,100504
2019-01-11T08:15:02.493Z,100488
2019-01-11T08:20:02.490Z,100493
2019-01-11T08:25:02.549Z,100481
2019-01-11T08:30:02.494Z,100486
2019-01-11T08:35:02.495Z,100469
2019-01-11T08:40:02.499Z,100473
2019-01-11T08:45:02.502Z,100469
2019-01-11T08:50:02.503Z,100471
2019-01-11T08:55:02.547Z,100465
2019-01-11T09:00:02.510Z,100452
2019-01-11T09:05:02.500Z,100461
2019-01-11T09:10:02.505Z,100457
2019-01-11T09:15:02.505Z,100462
2019-01-11T09:20:02.512Z,100462
2019-01-11T09:25:02.512Z,100461
2019-01-11T09:30:02.508Z,100467
2019-01-11T09:35:02.539Z,100462
2019-01-11T09:40:02.541Z,100456
2019-01-11T09:45:02.526Z,100451
2019-01-11T09:50:02.516Z,100455
2019-01-11T09:55:02.573Z,100451
2019-01-11T10:00:02.553Z,100443
2019-01-11T10:05:02.519Z,100445
2019-01-11T10:10:02.532Z,100443
2019-01-11T10:15:02.524Z,100428
2019-01-11T10:20:02.527Z,100429
2019-01-11T10:25:02.541Z,100414
2019-01-11T10:30:02.530Z,100411
2019-01-11T10:35:02.532Z,100406
2019-01-11T10:40:02.528Z,100399
2019-01-11T10:45:02.537Z,100388
2019-01-11T10:50:02.523Z,100394
2019-01-11T10:55:02.538Z,100375
2019-01-11T11:00:02.542Z,100371
2019-01-11T11:05:02.540Z,100364
2019-01-11T11:10:02.543Z,100363
2019-01-11T11:15:02.550Z,100351
2019-01-11T11:20:02.539Z,100333
2019-01-11T11:25:02.541Z,100321
2019-01-11T11:30:02.554Z,100309
2019-01-11T11:35:02.584Z,100295
2019-01-11T11:40:02.551Z,100290
2019-01-11T11:45:02.546Z,100278
2019-01-11T11:50:02.563Z,100282
2019-01-11T11:55:02.552Z,100266
2019-01-11T12:00:02.550Z,100267
2019-01-11T12:05:02.547Z,100267
2019-01-11T12:10:02.563Z,100272
2019-01-11T12:15:02.555Z,100251
2019-01-11T12:20:02.559Z,100247
2019-01-11T12:25:02.542Z,100244
2019-01-11T12:30:02.603Z,100230
2019-01-11T12:35:02.605Z,100232
2019-01-11T12:40:02.565Z,100202
2019-01-11T12:45:02.617Z,100196
2019-01-11T12:50:02.558Z,100189
2019-01-11T12:55:02.533Z,100167
2019-01-11T13:00:02.570Z,100166
2019-01-11T13:05:02.546Z,100166
2019-01-11T13:10:02.548Z,100152
2019-01-11T13:15:02.557Z,100152
2019-01-11T13:20:02.553Z,100154
2019-01-11T13:25:02.577Z,100142
2019-01-11T13:30:02.581Z,100146
2019-01-11T13:35:02.560Z,100133
2019-01-11T13:40:02.556Z,100136
2019-01-11T13:45:02.590Z,100132
2019-01-11T13:50:02.558Z,100132
2019-01-11T13:55:02.554Z,100129
2019-01-11T14:00:02.650Z,100123
2019-01-11T14:05:02.613Z,100121
2019-01-11T14:10:02.553Z,100120
2019-01-11T14:15:02.632Z,100112
2019-01-11T14:20:02.550Z,100110
2019-01-11T14:25:02.563Z,100100
2019-01-11T14:30:02.649Z,100095
2019-01-11T14:35:02.570Z,100094
2019-01-11T14:40:02.557Z,100088
2019-01-11T14:45:02.621Z,100098
2019-01-11T14:50:02.597Z,100074
2019-01-11T14:55:02.618Z,100080
2019-01-11T15:00:02.575Z,100089
2019-01-11T15:05:02.603Z,100079
2019-01-11T15:10:02.605Z,100073
2019-01-11T15:15:02.657Z,100070
2019-01-11T15:20:02.612Z,100061
2019-01-11T15:25:02.663Z,100057
2019-01-11T15:30:02.609Z,100076
2019-01-11T15:35:02.657Z,100066
2019-01-11T15:40:02.602Z,100066
2019-01-11T15:45:02.607Z,100056
2019-01-11T15:50:02.609Z,100045
2019-01-11T15:55:02.650Z,100059
2019-01-11T16:00:02.674Z,100059
2019-01-11T16:05:02.611Z,100056
2019-01-11T16:10:02.598Z,100053
2019-01-11T16:15:02.704Z,100058
2019-01-11T16:20:02.624Z,100056
2019-01-11T16:25:02.607Z,100047
2019-01-11T16:30:02.626Z,100041
2019-01-11T16:35:02.628Z,100032
2019-01-11T16:40:02.623Z,100029
2019-01-11T16:45:02.646Z,100038
2019-01-11T16:50:02.607Z,100037
2019-01-11T16:55:02.612Z,100029
2019-01-11T17:00:02.632Z,100026
2019-01-11T17:05:02.603Z,100024
2019-01-11T17:10:02.636Z,100029
2019-01-11T17:15:02.653Z,100016
2019-01-11T17:20:02.626Z,100019
2019-01-11T17:25:02.611Z,100022
2019-01-11T17:30:02.652Z,100017
2019-01-11T17:35:02.620Z,100009
2019-01-11T17:40:02.645Z,100023
2019-01-11T17:45:02.652Z,100010
2019-01-11T17:50:02.649Z,100020
2019-01-11T17:55:02.650Z,100010
2019-01-11T18:00:02.661Z,100016
2019-01-11T18:05:02.653Z,100029
2019-01-11T18:10:02.657Z,100027
2019-01-11T18:15:02.695Z,100016
2019-01-11T18:20:02.662Z,100024
2019-01-11T18:25:02.658Z,100025
2019-01-11T18:30:02.712Z,100025
2019-01-11T18:35:02.680Z,100026
2019-01-11T18:40:02.636Z,100009
2019-01-11T18:45:02.720Z,100020
2019-01-11T18:50:02.638Z,100033
2019-01-11T18:55:02.647Z,100018
2019-01-11T19:00:02.661Z,100020
2019-01-11T19:05:02.670Z,100029
2019-01-11T19:10:02.681Z,100027
2019-01-11T19:15:02.680Z,100029
2019-01-11T19:20:02.675Z,100041
2019-01-11T19:25:02.671Z,100031
2019-01-11T19:30:02.688Z,100038
2019-01-11T19:35:02.666Z,100026
2019-01-11T19:40:02.680Z,100027
2019-01-11T19:45:02.690Z,100022
2019-01-11T19:50:02.679Z,100029
2019-01-11T19:55:02.677Z,100039
2019-01-11T20:00:02.685Z,100035
2019-01-11T20:05:02.712Z,100019
2019-01-11T20:10:02.694Z,100018
2019-01-11T20:15:02.696Z,100036
2019-01-11T20:20:02.682Z,98783
2019-01-11T20:25:02.697Z,100044
2019-01-11T20:30:02.742Z,100041
2019-01-11T20:35:02.679Z,100036
2019-01-11T20:40:02.693Z,100034
2019-01-11T20:45:02.706Z,100046
2019-01-11T20:50:02.703Z,100040
2019-01-11T20:55:02.703Z,100050
2019-01-11T21:00:02.746Z,100043
2019-01-11T21:05:02.690Z,100067
2019-01-11T21:10:02.699Z,100051
2019-01-11T21:15:02.699Z,100067
2019-01-11T21:20:02.701Z,100053
2019-01-11T21:25:02.695Z,100059
2019-01-11T21:30:02.702Z,100057
2019-01-11T21:35:02.702Z,100051
2019-01-11T21:40:02.705Z,100049
2019-01-11T21:45:02.752Z,100055
2019-01-11T21:50:02.711Z,100038
2019-01-11T21:55:02.725Z,100040
2019-01-11T22:00:02.731Z,100042
2019-01-11T22:05:02.701Z,100045
2019-01-11T22:10:02.717Z,100054
2019-01-11T22:15:02.761Z,100046
2019-01-11T22:20:02.720Z,100057
2019-01-11T22:25:02.706Z,100049
2019-01-11T22:30:02.763Z,100052
2019-01-11T22:35:02.723Z,100047
2019-01-11T22:40:02.733Z,100057
2019-01-11T22:45:02.741Z,100063
2019-01-11T22:50:02.732Z,100065
2019-01-11T22:55:02.717Z,100061
2019-01-11T23:00:02.738Z,100068
2019-01-11T23:05:02.736Z,100062
2019-01-11T23:10:02.752Z,100059
2019-01-11T23:15:02.763Z,100059
2019-01-11T23:20:02.734Z,100073
2019-01-11T23:25:02.742Z,100069
2019-01-11T23:30:02.749Z,100064
2019-01-11T23:35:02.741Z,100067
2019-01-11T23:40:02.740Z,100078
2019-01-11T23:45:02.762Z,100074
2019-01-11T23:50:02.727Z,100069
2019-01-11T23:55:02.752Z,100080
